• Join FlightAware (Why Join?)
  • Login
  • US Flag 
03:38AM EDT


 

Airport Tracker/Info


-or-


 

Live Flight TrackerFlight Track Log ✈ RPA3228 ✈ 15-May-2013 ✈ KDSM - KDCA

Flight Track Log - Related Links

Times and Time Zones

All times are in EDT time to prevent confusion due to time zone crossing. See the RPA3228 flight status page for this flight to view local times or setup timezone preferences in your user account.

Time Position Orientation Groundspeed Altitude Reporting Facility
EDT Latitude Longitude Course Direction KTS MPH feet Rate Location/Type
07:44AM 41.5561 -93.6708 86° East 150 173 1,800  Level Minneapolis Center
07:45AM 41.5822 -93.7347 299° West 181 208 3,800 2,040 Climbing Minneapolis Center
07:46AM 41.4397 -93.3535 82° East  Level FlightAware Approximate
07:46AM 41.6314 -93.6992 28° Northeast 259 298 6,100  Level Minneapolis Center
07:47AM 41.4500 -93.2146 90° East  Level FlightAware Approximate
07:47AM 41.6267 -93.5925 93° East 288 331 8,900  Level Minneapolis Center
07:48AM 41.4500 -93.0748 90° East  Level FlightAware Approximate
07:48AM 41.6214 -93.4747 93° East 312 359 11,200  Level Minneapolis Center
07:49AM 41.4540 -92.9352 86° East  Level FlightAware Approximate
07:49AM 41.6153 -93.3431 94° East 349 402 13,600  Level Minneapolis Center
07:50AM 41.6072 -93.1739 94° East 370 426 16,900 2,700 Climbing Minneapolis Center
07:51AM 41.6008 -93.0522 94° East 373 429 19,200 1,920 Climbing Minneapolis Center
07:52AM 41.5944 -92.9364 94° East 384 442 20,900 2,100 Climbing Minneapolis Center
07:53AM 41.5836 -92.7297 94° East 397 457 23,600 2,220 Climbing Minneapolis Center
07:54AM 41.5761 -92.5764 94° East 407 468 25,500 1,680 Climbing Minneapolis Center
07:55AM 41.5672 -92.4192 94° East 420 483 27,100 1,440 Climbing Minneapolis Center
07:56AM 41.5589 -92.2594 94° East 428 493 28,500 1,140 Climbing Minneapolis Center
07:57AM 41.5511 -92.1311 95° East 433 498 29,500 1,080 Climbing Minneapolis Center
07:57AM 41.5467 -92.0706 96° East 439 505 29,900 1,260 Climbing Chicago Center
07:58AM 41.5350 -91.8719 94° East 450 518 31,100 1,080 Climbing Chicago Center
07:59AM 41.5250 -91.7044 95° East 457 526 32,200 900 Climbing Chicago Center
08:00AM 41.5203 -91.5344 92° East 462 532 33,000 360 Climbing Chicago Center
08:01AM 41.5250 -91.3639 88° East 466 536 33,000  Level Chicago Center
08:02AM 41.5281 -91.1911 89° East 471 542 33,000  Level Chicago Center
08:03AM 41.5314 -90.9847 89° East 469 540 33,000  Level Chicago Center
08:04AM 41.5339 -90.8108 89° East 474 545 33,000  Level Chicago Center
08:05AM 41.5364 -90.6389 89° East 471 542 33,000  Level Chicago Center
08:06AM 41.5389 -90.4689 89° East 474 545 33,000  Level Chicago Center
08:08AM 41.5414 -90.2942 89° East 472 543 33,000  Level Chicago Center
08:09AM 41.5433 -90.0847 89° East 470 541 33,000  Level Chicago Center
08:10AM 41.5467 -89.9086 88° East 472 543 33,000  Level Chicago Center
08:11AM 41.5478 -89.7311 89° East 475 547 33,000  Level Chicago Center
08:12AM 41.5472 -89.5544 90° East 474 545 33,000  Level Chicago Center
08:13AM 41.5481 -89.3883 90° East 474 545 33,000  Level Chicago Center
08:14AM 41.5483 -89.1769 90° East 478 550 33,000  Level Chicago Center
08:15AM 41.5481 -89.0019 90° East 475 547 33,000  Level Chicago Center
08:16AM 41.5478 -88.8253 90° East 478 550 33,000  Level Chicago Center
08:17AM 41.5492 -88.6481 89° East 479 551 33,000  Level Chicago Center
08:18AM 41.5478 -88.4717 91° East 479 551 33,000  Level Chicago Center
08:19AM 41.5394 -88.2950 94° East 480 552 33,000 300 Level Chicago Center
08:20AM 41.5022 -88.1042 105° East 482 555 33,700 480 Climbing Chicago Center
08:21AM 41.4639 -87.9328 107° East 484 557 34,000 120 Climbing Chicago Center
08:22AM 41.4211 -87.7383 106° East 474 545 34,000 300 Level Chicago Center
08:23AM 41.3836 -87.5692 106° East 477 549 34,700 480 Climbing Chicago Center
08:24AM 41.3464 -87.4014 106° East 476 548 35,000 120 Climbing Chicago Center
08:25AM 41.3083 -87.2331 107° East 477 549 35,000  Level Chicago Center
08:26AM 41.2700 -87.0650 107° East 478 550 35,000  Level Chicago Center
08:27AM 41.2325 -86.8969 106° East 478 550 35,000  Level Chicago Center
08:28AM 41.1894 -86.7072 107° East 477 549 35,000  Level Chicago Center
08:29AM 41.1497 -86.5397 107° East 480 552 35,000  Level Chicago Center
08:30AM 41.1100 -86.3717 107° East 479 551 35,000  Level Chicago Center
08:31AM 41.0719 -86.2056 107° East 478 550 35,000  Level Chicago Center
08:32AM 41.0250 -86.0050 107° East 480 552 35,000  Level Chicago Center
08:33AM 40.9844 -85.8369 108° East 481 554 35,000  Level Chicago Center
08:34AM 40.9439 -85.6719 108° East 479 551 35,000  Level Chicago Center
08:35AM 40.9039 -85.5047 108° East 482 555 35,000  Level Chicago Center
08:36AM 40.8625 -85.3389 108° East 481 554 35,000  Level Chicago Center
08:37AM 40.8136 -85.1331 107° East 490 564 35,000  Level Chicago Center
08:38AM 40.7728 -84.9667 108° East 484 557 35,000  Level Chicago Center
08:40AM 40.7311 -84.8022 108° East 478 550 35,000  Level Chicago Center
08:41AM 40.6897 -84.6358 108° East 479 551 35,000  Level Chicago Center
08:42AM 40.6478 -84.4700 108° East 480 552 35,000  Level Chicago Center
08:43AM 40.6053 -84.3033 109° East 481 554 35,000  Level Chicago Center
08:44AM 40.5547 -84.1039 108° East 481 554 35,000  Level Chicago Center
08:45AM 40.5119 -83.9425 109° East 481 554 35,000  Level Indianapolis Center
08:46AM 40.4678 -83.7719 109° East 487 560 35,000  Level Indianapolis Center
08:47AM 40.4239 -83.6039 109° East 482 555 35,000  Level Indianapolis Center
08:48AM 40.3792 -83.4342 109° East 484 557 35,000  Level Indianapolis Center
08:49AM 40.3267 -83.2381 109° East 483 556 35,000  Level Indianapolis Center
08:50AM 40.2817 -83.0692 109° East 484 557 35,000  Level Indianapolis Center
08:51AM 40.2358 -82.9014 110° East 484 557 35,000  Level Indianapolis Center
08:52AM 40.1906 -82.7308 109° East 489 563 35,000  Level Indianapolis Center
08:53AM 40.1444 -82.5636 110° East 486 559 35,000  Level Indianapolis Center
08:54AM 40.0950 -82.3969 111° Southeast 485 558 35,000  Level Indianapolis Center
08:55AM 40.0444 -82.2292 111° Southeast 491 565 35,000  Level Indianapolis Center
08:56AM 39.9950 -82.0633 111° Southeast 488 562 35,000  Level Indianapolis Center
08:57AM 39.9444 -81.8958 111° Southeast 490 564 35,000  Level Indianapolis Center
08:58AM 39.8856 -81.7014 111° Southeast 489 563 35,000  Level Indianapolis Center
08:59AM 39.8344 -81.5350 112° Southeast 490 564 35,000  Level Indianapolis Center
09:00AM 39.7953 -81.4206 114° Southeast 498 573 35,000  Level Cleveland Center
09:01AM 39.7464 -81.2392 109° East 487 560 35,000  Level Cleveland Center
09:02AM 39.6889 -81.0550 112° Southeast 492 566 35,000  Level Cleveland Center
09:03AM 39.6372 -80.8903 112° Southeast 492 566 35,000  Level Cleveland Center
09:04AM 39.5856 -80.7258 112° Southeast 492 566 35,000  Level Cleveland Center
09:04AM 39.5714 -80.6858 115° Southeast 492 566 35,000  Level Indianapolis Center
09:06AM 39.4722 -80.3744 112° Southeast 496 571 35,000  Level Indianapolis Center
09:07AM 39.4078 -80.1689 112° Southeast 502 578 35,000 -780 Level Washington Center
09:08AM 39.3578 -80.0072 112° Southeast 502 578 33,400 -2,040 Descending Washington Center
09:09AM 39.3072 -79.8486 112° Southeast 491 565 31,000 -1,200 Descending Washington Center
09:10AM 39.2858 -79.6783 99° East 463 533 31,000  Level Washington Center
09:11AM 39.2708 -79.5058 96° East 469 540 31,000  Level Washington Center
09:12AM 39.2575 -79.3336 96° East 474 545 31,000 -900 Level Washington Center
09:13AM 39.2414 -79.1772 98° East 481 554 29,300 -2,220 Descending Washington Center
09:14AM 39.2256 -79.0106 97° East 487 560 26,700 -2,580 Descending Washington Center
09:15AM 39.2111 -78.8489 97° East 476 548 24,300 -2,400 Descending Washington Center
09:16AM 39.1967 -78.6903 97° East 453 521 22,000 -2,340 Descending Washington Center
09:17AM 39.1817 -78.5369 97° East 439 505 19,700 -2,220 Descending Washington Center
09:18AM 39.1664 -78.3919 98° East 421 484 17,500 -1,800 Descending Washington Center
09:19AM 39.1361 -78.2517 106° East 411 473 16,100 -1,260 Descending Washington Center
09:20AM 39.1017 -78.1167 108° East 406 467 15,000 -1,200 Descending Washington Center
09:21AM 39.0669 -77.9817 108° East 396 456 13,800 -1,320 Descending Washington Center
09:22AM 39.0339 -77.8522 108° East 385 443 12,500 -1,440 Descending Washington Center
09:23AM 38.9989 -77.7125 108° East 372 428 11,000 -1,140 Descending Washington Center
09:24AM 38.9714 -77.6100 109° East 354 407 10,300 -1,200 Descending Washington Center
09:25AM 38.9500 -77.5333 110° East 332 382 9,200 -2,100 Descending Potomac TRACON
09:26AM 38.9667 -77.4333 78° East 287 330 7,100 -2,100 Descending Potomac TRACON
09:27AM 39.0000 -77.3500 63° Northeast 279 321 5,000 -1,380 Descending Potomac TRACON
09:28AM 38.9833 -77.2667 104° East 244 281 4,400 -840 Descending Potomac TRACON
09:29AM 38.9833 -77.2000 90° East 231 266 3,500 -1,020 Descending Potomac TRACON
09:30AM 38.9500 -77.1333 123° Southeast 207 238 2,600 -900 Descending Potomac TRACON